createdAt,value
2018-08-13T00:00:31.344Z,49.53
2018-08-13T00:01:31.440Z,49.63
2018-08-13T00:02:31.300Z,49.53
2018-08-13T00:03:31.287Z,49.43
2018-08-13T00:04:31.298Z,49.53
2018-08-13T00:05:31.268Z,48.93
2018-08-13T00:06:31.285Z,49.84
2018-08-13T00:07:31.291Z,50.54
2018-08-13T00:08:31.233Z,50.77
2018-08-13T00:09:31.224Z,50.67
2018-08-13T00:10:31.210Z,49.96
2018-08-13T00:11:31.228Z,49.76
2018-08-13T00:12:31.188Z,49.86
2018-08-13T00:13:31.178Z,49.63
2018-08-13T00:14:31.165Z,49.53
2018-08-13T00:15:31.158Z,49.55
2018-08-13T00:16:31.164Z,49.55
2018-08-13T00:17:31.188Z,49.35
2018-08-13T00:18:31.153Z,49.76
2018-08-13T00:19:31.111Z,49.76
2018-08-13T00:20:31.099Z,50.16
2018-08-13T00:21:31.088Z,50.29
2018-08-13T00:22:31.077Z,50.38
2018-08-13T00:23:31.087Z,50.89
2018-08-13T00:24:31.056Z,50.99
2018-08-13T00:25:31.043Z,51.70
2018-08-13T00:26:31.032Z,53.22
2018-08-13T00:27:31.020Z,52.31
2018-08-13T00:28:31.032Z,52.23
2018-08-13T00:29:30.999Z,53.05
2018-08-13T00:30:31.009Z,51.93
2018-08-13T00:31:30.976Z,52.23
2018-08-13T00:32:30.988Z,51.95
2018-08-13T00:33:30.954Z,52.06
2018-08-13T00:34:30.943Z,51.86
2018-08-13T00:35:30.932Z,52.56
2018-08-13T00:36:30.920Z,52.46
2018-08-13T00:37:30.934Z,52.97
2018-08-13T00:38:30.921Z,53.67
2018-08-13T00:39:30.889Z,53.27
2018-08-13T00:40:30.975Z,53.58
2018-08-13T00:41:30.868Z,53.78
2018-08-13T00:42:30.878Z,53.67
2018-08-13T00:43:30.842Z,53.27
2018-08-13T00:44:30.832Z,53.58
2018-08-13T00:45:30.820Z,53.17
2018-08-13T00:46:30.811Z,52.86
2018-08-13T00:47:30.828Z,52.06
2018-08-13T00:48:30.787Z,52.26
2018-08-13T00:49:30.775Z,52.06
2018-08-13T00:50:30.768Z,51.35
2018-08-13T00:51:30.753Z,51.53
2018-08-13T00:52:30.772Z,51.45
2018-08-13T00:53:30.730Z,51.95
2018-08-13T00:54:30.719Z,52.26
2018-08-13T00:55:30.711Z,52.06
2018-08-13T00:56:30.697Z,52.36
2018-08-13T00:57:30.709Z,52.97
2018-08-13T00:58:30.677Z,52.89
2018-08-13T00:59:30.689Z,53.30
2018-08-13T01:00:30.654Z,53.60
2018-08-13T01:01:30.642Z,53.60
2018-08-13T01:02:30.633Z,53.83
2018-08-13T01:03:30.648Z,53.72
2018-08-13T01:04:30.614Z,53.93
2018-08-13T01:05:30.596Z,54.03
2018-08-13T01:06:30.591Z,54.74
2018-08-13T01:07:30.574Z,55.04
2018-08-13T01:08:30.588Z,55.15
2018-08-13T01:09:30.552Z,54.13
2018-08-13T01:10:30.541Z,54.03
2018-08-13T01:11:30.531Z,54.24
2018-08-13T01:12:30.521Z,54.84
2018-08-13T01:13:30.531Z,54.13
2018-08-13T01:14:30.497Z,54.13
2018-08-13T01:15:30.507Z,55.15
2018-08-13T01:16:30.475Z,54.84
2018-08-13T01:17:30.464Z,54.13
2018-08-13T01:18:30.452Z,53.83
2018-08-13T01:19:30.442Z,55.04
2018-08-13T01:20:30.450Z,54.13
2018-08-13T01:21:30.420Z,55.04
2018-08-13T01:22:30.408Z,55.25
2018-08-13T01:23:30.396Z,55.25
2018-08-13T01:24:30.385Z,55.04
2018-08-13T01:25:30.396Z,54.74
2018-08-13T01:26:30.363Z,56.05
2018-08-13T01:27:30.354Z,56.16
2018-08-13T01:28:30.362Z,56.16
2018-08-13T01:29:30.363Z,56.46
2018-08-13T01:30:30.318Z,55.98
2018-08-13T01:31:30.328Z,56.18
2018-08-13T01:32:30.297Z,55.98
2018-08-13T01:33:30.286Z,56.29
2018-08-13T01:34:30.274Z,56.18
2018-08-13T01:35:30.264Z,56.70
2018-08-13T01:36:30.274Z,56.49
2018-08-13T01:37:30.243Z,56.01
2018-08-13T01:38:30.229Z,56.01
2018-08-13T01:39:30.241Z,56.21
2018-08-13T01:40:30.207Z,56.72
2018-08-13T01:41:30.196Z,56.82
2018-08-13T01:42:30.187Z,57.23
2018-08-13T01:43:30.196Z,56.54
2018-08-13T01:44:30.163Z,57.05
2018-08-13T01:45:30.152Z,57.43
2018-08-13T01:46:30.142Z,58.27
2018-08-13T01:47:30.134Z,58.17
2018-08-13T01:48:30.149Z,58.06
2018-08-13T01:49:30.108Z,58.27
2018-08-13T01:50:30.097Z,58.37
2018-08-13T01:51:30.085Z,57.66
2018-08-13T01:52:30.074Z,57.66
2018-08-13T01:53:30.093Z,58.37
2018-08-13T01:54:30.058Z,58.06
2018-08-13T01:55:30.042Z,58.06
2018-08-13T01:56:30.031Z,58.27
2018-08-13T01:57:30.020Z,57.86
2018-08-13T01:58:30.060Z,58.06
2018-08-13T01:59:29.997Z,57.46
2018-08-13T02:00:29.986Z,57.05
2018-08-13T02:01:30.097Z,58.47
2018-08-13T02:02:29.964Z,57.97
2018-08-13T02:03:29.992Z,58.17
2018-08-13T02:04:29.942Z,57.56
2018-08-13T02:05:29.930Z,57.86
2018-08-13T02:06:29.932Z,58.06
2018-08-13T02:07:29.908Z,58.06
2018-08-13T02:08:29.897Z,58.50
2018-08-13T02:09:29.908Z,58.37
2018-08-13T02:10:29.877Z,58.40
2018-08-13T02:11:29.864Z,57.89
2018-08-13T02:12:29.878Z,58.60
2018-08-13T02:13:29.842Z,58.50
2018-08-13T02:14:29.831Z,57.38
2018-08-13T02:15:29.839Z,57.79
2018-08-13T02:16:29.809Z,57.28
2018-08-13T02:17:29.892Z,57.59
2018-08-13T02:18:29.786Z,56.85
2018-08-13T02:19:29.775Z,56.95
2018-08-13T02:20:29.764Z,57.25
2018-08-13T02:21:29.783Z,56.65
2018-08-13T02:22:29.742Z,57.66
2018-08-13T02:23:29.731Z,57.66
2018-08-13T02:24:29.720Z,57.35
2018-08-13T02:25:29.709Z,57.97
2018-08-13T02:26:29.723Z,58.98
2018-08-13T02:27:29.693Z,58.27
2018-08-13T02:28:29.675Z,58.06
2018-08-13T02:29:29.685Z,57.66
2018-08-13T02:30:29.654Z,57.86
2018-08-13T02:31:29.663Z,58.17
2018-08-13T02:32:29.635Z,57.99
2018-08-13T02:33:29.619Z,58.40
2018-08-13T02:34:29.609Z,58.20
2018-08-13T02:35:29.612Z,58.09
2018-08-13T02:36:29.590Z,58.60
2018-08-13T02:37:29.601Z,58.70
2018-08-13T02:38:29.568Z,58.63
2018-08-13T02:39:29.621Z,59.82
2018-08-13T02:40:29.544Z,60.02
2018-08-13T02:41:29.564Z,60.13
2018-08-13T02:42:29.525Z,60.63
2018-08-13T02:43:29.513Z,60.15
2018-08-13T02:44:29.499Z,60.46
2018-08-13T02:45:29.509Z,60.56
2018-08-13T02:46:29.476Z,60.76
2018-08-13T02:47:29.468Z,61.47
2018-08-13T02:48:29.454Z,60.46
2018-08-13T02:49:29.450Z,60.66
2018-08-13T02:50:29.453Z,60.46
2018-08-13T02:51:29.421Z,60.66
2018-08-13T02:52:29.411Z,60.15
2018-08-13T02:53:29.400Z,60.46
2018-08-13T02:54:29.409Z,60.15
2018-08-13T02:55:29.377Z,60.56
2018-08-13T02:56:29.369Z,59.95
2018-08-13T02:57:29.379Z,60.15
2018-08-13T02:58:29.344Z,60.25
2018-08-13T02:59:29.333Z,60.56
2018-08-13T03:00:29.343Z,60.36
2018-08-13T03:01:29.311Z,60.46
2018-08-13T03:02:29.321Z,60.05
2018-08-13T03:03:29.311Z,59.84
2018-08-13T03:04:29.291Z,60.15
2018-08-13T03:05:29.266Z,60.25
2018-08-13T03:06:29.255Z,60.36
2018-08-13T03:07:29.244Z,60.76
2018-08-13T03:08:29.254Z,60.05
2018-08-13T03:09:29.228Z,60.15
2018-08-13T03:10:29.212Z,60.36
2018-08-13T03:11:29.207Z,60.25
2018-08-13T03:12:29.210Z,60.56
2018-08-13T03:13:29.199Z,59.84
2018-08-13T03:14:29.166Z,58.94
2018-08-13T03:15:29.154Z,59.44
2018-08-13T03:16:29.145Z,59.03
2018-08-13T03:17:29.153Z,59.95
2018-08-13T03:18:29.122Z,60.36
2018-08-13T03:19:29.133Z,59.75
2018-08-13T03:20:29.099Z,59.75
2018-08-13T03:21:29.091Z,60.25
2018-08-13T03:22:29.100Z,60.76
2018-08-13T03:23:29.066Z,60.46
2018-08-13T03:24:29.075Z,60.36
2018-08-13T03:25:29.043Z,60.46
2018-08-13T03:26:29.033Z,60.97
2018-08-13T03:27:29.021Z,61.10
2018-08-13T03:28:29.031Z,61.40
2018-08-13T03:29:28.999Z,60.28
2018-08-13T03:30:28.989Z,60.59
2018-08-13T03:31:29.044Z,60.38
2018-08-13T03:32:28.993Z,60.79
2018-08-13T03:33:28.985Z,60.79
2018-08-13T03:34:28.943Z,60.97
2018-08-13T03:35:28.932Z,60.99
2018-08-13T03:36:28.922Z,61.30
2018-08-13T03:37:28.911Z,61.30
2018-08-13T03:38:28.928Z,61.27
2018-08-13T03:39:28.888Z,61.10
2018-08-13T03:40:28.877Z,61.51
2018-08-13T03:41:28.868Z,61.40
2018-08-13T03:42:28.855Z,61.30
2018-08-13T03:43:28.874Z,62.01
2018-08-13T03:44:28.833Z,61.60
2018-08-13T03:45:28.821Z,61.30
2018-08-13T03:46:28.812Z,61.40
2018-08-13T03:47:28.800Z,62.32
2018-08-13T03:48:28.810Z,62.04
2018-08-13T03:49:28.778Z,62.01
2018-08-13T03:50:28.766Z,62.32
2018-08-13T03:51:28.776Z,62.01
2018-08-13T03:52:28.744Z,62.11
2018-08-13T03:53:28.733Z,62.32
2018-08-13T03:54:28.722Z,62.11
2018-08-13T03:55:28.711Z,62.41
2018-08-13T03:56:28.721Z,62.72
2018-08-13T03:57:28.688Z,62.52
2018-08-13T03:58:28.677Z,62.62
2018-08-13T03:59:28.666Z,62.93
2018-08-13T04:00:28.685Z,63.36
2018-08-13T04:01:28.651Z,63.06
2018-08-13T04:02:28.635Z,63.46
2018-08-13T04:03:28.625Z,63.57
2018-08-13T04:04:28.611Z,63.16
2018-08-13T04:05:28.621Z,62.65
2018-08-13T04:06:28.589Z,62.98
2018-08-13T04:07:28.581Z,62.85
2018-08-13T04:08:28.575Z,63.16
2018-08-13T04:09:28.555Z,63.46
2018-08-13T04:10:28.571Z,63.36
2018-08-13T04:11:28.534Z,63.49
2018-08-13T04:12:28.522Z,64.00
2018-08-13T04:13:28.510Z,63.97
2018-08-13T04:14:28.501Z,63.57
2018-08-13T04:15:28.525Z,63.09
2018-08-13T04:16:28.512Z,63.29
2018-08-13T04:17:28.469Z,64.31
2018-08-13T04:18:28.458Z,64.20
2018-08-13T04:19:28.445Z,64.18
2018-08-13T04:20:28.438Z,63.67
2018-08-13T04:21:28.452Z,63.16
2018-08-13T04:22:28.412Z,63.57
2018-08-13T04:23:28.404Z,62.96
2018-08-13T04:24:28.393Z,62.55
2018-08-13T04:25:28.379Z,62.35
2018-08-13T04:26:28.395Z,62.45
2018-08-13T04:27:28.359Z,62.35
2018-08-13T04:28:28.346Z,62.45
2018-08-13T04:29:28.335Z,61.94
2018-08-13T04:30:28.323Z,62.35
2018-08-13T04:31:28.336Z,62.24
2018-08-13T04:32:28.301Z,61.94
2018-08-13T04:33:28.289Z,61.60
2018-08-13T04:34:28.278Z,61.51
2018-08-13T04:35:28.290Z,61.40
2018-08-13T04:36:28.258Z,60.99
2018-08-13T04:37:28.255Z,61.30
2018-08-13T04:38:28.267Z,60.99
2018-08-13T04:39:28.226Z,61.71
2018-08-13T04:40:28.213Z,61.91
2018-08-13T04:41:28.204Z,62.01
2018-08-13T04:42:28.190Z,62.62
2018-08-13T04:43:28.212Z,62.32
2018-08-13T04:44:28.170Z,62.62
2018-08-13T04:45:28.157Z,62.82
2018-08-13T04:46:28.146Z,63.33
2018-08-13T04:47:28.134Z,63.54
2018-08-13T04:48:28.148Z,62.72
2018-08-13T04:49:28.116Z,63.64
2018-08-13T04:50:28.125Z,62.93
2018-08-13T04:51:28.090Z,63.13
2018-08-13T04:52:28.079Z,62.82
2018-08-13T04:53:28.069Z,62.52
2018-08-13T04:54:28.060Z,63.54
2018-08-13T04:55:28.087Z,63.33
2018-08-13T04:56:28.038Z,63.33
2018-08-13T04:57:28.024Z,63.54
2018-08-13T04:58:28.019Z,63.54
2018-08-13T04:59:28.007Z,63.84
2018-08-13T05:00:28.012Z,63.94
2018-08-13T05:01:28.003Z,64.15
2018-08-13T05:02:27.969Z,63.94
2018-08-13T05:03:27.957Z,64.25
2018-08-13T05:04:27.946Z,64.25
2018-08-13T05:05:27.935Z,64.96
2018-08-13T05:06:27.954Z,64.65
2018-08-13T05:07:28.024Z,64.22
2018-08-13T05:08:27.902Z,64.12
2018-08-13T05:09:27.890Z,64.22
2018-08-13T05:10:27.879Z,64.01
2018-08-13T05:11:27.896Z,64.01
2018-08-13T05:12:27.860Z,64.42
2018-08-13T05:13:27.846Z,64.22
2018-08-13T05:14:27.835Z,63.51
2018-08-13T05:15:27.847Z,63.88
2018-08-13T05:16:27.813Z,64.12
2018-08-13T05:17:27.803Z,64.22
2018-08-13T05:18:27.792Z,64.12
2018-08-13T05:19:27.779Z,63.81
2018-08-13T05:20:27.790Z,64.32
2018-08-13T05:21:27.757Z,64.62
2018-08-13T05:22:27.748Z,64.83
2018-08-13T05:23:27.734Z,64.93
2018-08-13T05:24:27.725Z,64.09
2018-08-13T05:25:27.743Z,64.18
2018-08-13T05:26:27.706Z,64.79
2018-08-13T05:27:27.691Z,64.90
2018-08-13T05:28:27.680Z,64.49
2018-08-13T05:29:27.672Z,63.78
2018-08-13T05:30:27.759Z,63.65
2018-08-13T05:31:27.647Z,63.95
2018-08-13T05:32:27.668Z,63.78
2018-08-13T05:33:27.630Z,64.15
2018-08-13T05:34:27.613Z,63.24
2018-08-13T05:35:27.602Z,65.07
2018-08-13T05:36:27.591Z,64.94
2018-08-13T05:37:27.602Z,65.04
2018-08-13T05:38:27.574Z,65.14
2018-08-13T05:39:28.006Z,63.82
2018-08-13T05:40:27.547Z,63.72
2018-08-13T05:41:27.535Z,64.50
2018-08-13T05:42:27.527Z,63.79
2018-08-13T05:43:27.514Z,63.49
2018-08-13T05:44:27.525Z,63.26
2018-08-13T05:45:27.491Z,63.59
2018-08-13T05:46:27.480Z,63.06
2018-08-13T05:47:27.469Z,63.15
2018-08-13T05:48:27.479Z,64.27
2018-08-13T05:49:27.447Z,64.07
2018-08-13T05:50:27.457Z,62.41
2018-08-13T05:51:27.425Z,61.80
2018-08-13T05:52:27.417Z,63.32
2018-08-13T05:53:27.403Z,62.18
2018-08-13T05:54:27.392Z,62.08
2018-08-13T05:55:27.405Z,62.18
2018-08-13T05:56:27.369Z,61.58
2018-08-13T05:57:27.362Z,61.44
2018-08-13T05:58:27.368Z,60.33
2018-08-13T05:59:27.335Z,59.72
2018-08-13T06:00:27.339Z,59.01
2018-08-13T06:01:27.314Z,59.83
2018-08-13T06:02:27.303Z,60.03
2018-08-13T06:03:27.350Z,59.70
2018-08-13T06:04:27.298Z,58.99
2018-08-13T06:05:27.298Z,59.09
2018-08-13T06:06:27.258Z,59.06
2018-08-13T06:07:27.247Z,57.85
2018-08-13T06:08:27.236Z,58.05
2018-08-13T06:09:27.224Z,57.75
2018-08-13T06:10:27.235Z,57.14
2018-08-13T06:11:27.387Z,57.65
2018-08-13T06:12:27.193Z,56.53
2018-08-13T06:13:27.206Z,56.43
2018-08-13T06:14:27.168Z,57.85
2018-08-13T06:15:27.179Z,57.24
2018-08-13T06:16:27.146Z,58.53
2018-08-13T06:17:27.138Z,59.34
2018-08-13T06:18:27.162Z,59.64
2018-08-13T06:19:27.147Z,60.25
2018-08-13T06:20:27.102Z,60.35
2018-08-13T06:21:27.091Z,61.25
2018-08-13T06:22:27.082Z,60.85
2018-08-13T06:23:27.069Z,60.05
2018-08-13T06:24:27.078Z,60.14
2018-08-13T06:25:27.046Z,59.64
2018-08-13T06:26:27.134Z,60.25
2018-08-13T06:27:27.023Z,60.55
2018-08-13T06:28:27.047Z,60.45
2018-08-13T06:29:27.002Z,60.55
2018-08-13T06:30:26.993Z,60.22
2018-08-13T06:31:26.979Z,59.91
2018-08-13T06:32:26.968Z,58.80
2018-08-13T06:33:26.994Z,58.91
2018-08-13T06:34:26.946Z,58.78
2018-08-13T06:35:26.935Z,58.27
2018-08-13T06:36:26.923Z,56.35
2018-08-13T06:37:26.912Z,54.71
2018-08-13T06:38:26.947Z,53.78
2018-08-13T06:39:26.889Z,53.58
2018-08-13T06:40:26.880Z,53.27
2018-08-13T06:41:26.868Z,53.65
2018-08-13T06:42:26.857Z,53.22
2018-08-13T06:43:26.867Z,53.65
2018-08-13T06:44:26.859Z,53.32
2018-08-13T06:45:26.850Z,53.83
2018-08-13T06:46:26.812Z,52.59
2018-08-13T06:47:26.806Z,53.00
2018-08-13T06:48:26.790Z,53.27
2018-08-13T06:49:26.780Z,52.67
2018-08-13T06:50:26.789Z,50.83
2018-08-13T06:51:26.757Z,49.32
2018-08-13T06:52:26.746Z,49.73
2018-08-13T06:53:26.737Z,49.50
2018-08-13T06:54:26.729Z,48.90
2018-08-13T06:55:26.735Z,48.57
2018-08-13T06:56:26.702Z,47.46
2018-08-13T06:57:26.692Z,47.97
2018-08-13T06:58:26.680Z,48.75
2018-08-13T06:59:26.670Z,48.75
2018-08-13T07:00:26.679Z,47.94
2018-08-13T07:01:26.648Z,49.05
2018-08-13T07:02:26.637Z,49.77
2018-08-13T07:03:26.628Z,48.57
2018-08-13T07:04:26.636Z,48.47
2018-08-13T07:05:26.626Z,47.86
2018-08-13T07:06:26.596Z,47.66
2018-08-13T07:07:26.583Z,47.26
2018-08-13T07:08:26.617Z,47.14
2018-08-13T07:09:26.560Z,47.12
2018-08-13T07:10:26.570Z,46.92
2018-08-13T07:11:26.540Z,48.10
2018-08-13T07:12:26.527Z,47.67
2018-08-13T07:13:26.539Z,46.97
2018-08-13T07:14:26.505Z,44.76
2018-08-13T07:15:26.495Z,44.04
2018-08-13T07:16:26.483Z,43.94
2018-08-13T07:17:26.494Z,45.45
2018-08-13T07:18:26.481Z,43.52
2018-08-13T07:19:26.471Z,45.53
2018-08-13T07:20:26.460Z,45.20
2018-08-13T07:21:26.425Z,44.68
2018-08-13T07:22:26.478Z,45.28
2018-08-13T07:23:26.408Z,45.88
2018-08-13T07:24:26.415Z,44.26
2018-08-13T07:25:26.382Z,43.85
2018-08-13T07:26:26.374Z,42.85
2018-08-13T07:27:26.362Z,43.74
2018-08-13T07:28:26.380Z,44.06
2018-08-13T07:29:26.340Z,43.85
2018-08-13T07:30:26.330Z,43.66
2018-08-13T07:31:26.341Z,45.36
2018-08-13T07:32:26.308Z,44.66
2018-08-13T07:33:26.318Z,43.85
2018-08-13T07:34:26.317Z,43.26
2018-08-13T07:35:26.276Z,43.85
2018-08-13T07:36:26.269Z,43.55
2018-08-13T07:37:26.255Z,43.85
2018-08-13T07:38:26.244Z,43.46
2018-08-13T07:39:26.318Z,45.43
2018-08-13T07:40:26.223Z,45.43
2018-08-13T07:41:26.213Z,45.24
2018-08-13T07:42:26.201Z,45.64
2018-08-13T07:43:26.192Z,46.74
2018-08-13T07:44:26.204Z,46.44
2018-08-13T07:45:26.223Z,43.84
2018-08-13T07:46:26.163Z,43.41
2018-08-13T07:47:26.149Z,44.82
2018-08-13T07:48:26.141Z,45.21
2018-08-13T07:49:26.150Z,46.69
2018-08-13T07:50:26.118Z,45.12
2018-08-13T07:51:26.107Z,43.59
2018-08-13T07:52:26.131Z,45.69
2018-08-13T07:53:26.084Z,43.99
2018-08-13T07:54:26.092Z,43.70
2018-08-13T07:55:26.060Z,45.09
2018-08-13T07:56:26.049Z,45.69
2018-08-13T07:57:26.063Z,46.30
2018-08-13T07:58:26.049Z,47.39
2018-08-13T07:59:26.016Z,46.50
2018-08-13T08:00:26.008Z,45.79
2018-08-13T08:01:25.995Z,46.92
2018-08-13T08:02:25.985Z,44.82
2018-08-13T08:03:25.996Z,45.12
2018-08-13T08:04:25.962Z,45.51
2018-08-13T08:05:25.974Z,47.52
2018-08-13T08:06:25.953Z,46.94
2018-08-13T08:07:25.934Z,45.34
2018-08-13T08:08:25.921Z,44.84
2018-08-13T08:09:25.909Z,45.04
2018-08-13T08:10:25.928Z,45.94
2018-08-13T08:11:25.892Z,45.43
2018-08-13T08:12:25.917Z,47.14
2018-08-13T08:13:25.869Z,45.14
2018-08-13T08:14:25.858Z,45.34
2018-08-13T08:15:25.850Z,45.24
2018-08-13T08:16:25.833Z,45.94
2018-08-13T08:17:25.855Z,43.93
2018-08-13T08:18:25.812Z,44.04
2018-08-13T08:19:25.808Z,45.62
2018-08-13T08:20:25.789Z,47.11
2018-08-13T08:21:25.831Z,46.51
2018-08-13T08:22:25.796Z,45.34
2018-08-13T08:23:25.778Z,45.14
2018-08-13T08:24:25.746Z,45.21
2018-08-13T08:25:25.739Z,45.01
2018-08-13T08:26:25.725Z,45.21
2018-08-13T08:27:25.714Z,45.62
2018-08-13T08:28:25.736Z,44.01
2018-08-13T08:29:25.783Z,44.12
2018-08-13T08:30:25.684Z,44.12
2018-08-13T08:31:25.670Z,43.91
2018-08-13T08:32:25.660Z,43.82
2018-08-13T08:33:25.672Z,44.01
2018-08-13T08:34:25.665Z,45.72
2018-08-13T08:35:25.628Z,45.01
2018-08-13T08:36:25.639Z,46.42
2018-08-13T08:37:25.606Z,48.22
2018-08-13T08:38:25.641Z,49.11
2018-08-13T08:39:25.585Z,47.84
2018-08-13T08:40:25.615Z,48.24
2018-08-13T08:41:25.564Z,49.44
2018-08-13T08:42:25.552Z,48.86
2018-08-13T08:43:25.566Z,49.57
2018-08-13T08:44:25.531Z,47.76
2018-08-13T08:45:25.542Z,47.56
2018-08-13T08:46:25.536Z,49.07
2018-08-13T08:47:25.499Z,49.66
2018-08-13T08:48:25.510Z,52.47
2018-08-13T08:49:25.484Z,52.97
2018-08-13T08:50:25.488Z,50.57
2018-08-13T08:51:25.457Z,52.17
2018-08-13T08:52:25.447Z,52.27
2018-08-13T08:53:25.460Z,54.47
2018-08-13T08:54:25.424Z,53.97
2018-08-13T08:55:25.413Z,55.07
2018-08-13T08:56:25.402Z,55.67
2018-08-13T08:57:25.392Z,55.47
2018-08-13T08:58:25.403Z,52.19
2018-08-13T08:59:25.370Z,52.97
2018-08-13T09:00:25.363Z,54.60
2018-08-13T09:01:25.350Z,53.30
2018-08-13T09:02:25.342Z,53.30
2018-08-13T09:03:25.354Z,54.27
2018-08-13T09:04:25.320Z,54.50
2018-08-13T09:05:25.307Z,53.69
2018-08-13T09:06:25.321Z,54.39
2018-08-13T09:07:25.287Z,56.10
2018-08-13T09:08:25.276Z,55.70
2018-08-13T09:09:25.264Z,55.20
2018-08-13T09:10:25.278Z,55.73
2018-08-13T09:11:25.243Z,57.30
2018-08-13T09:12:25.238Z,56.73
2018-08-13T09:13:25.222Z,56.96
2018-08-13T09:14:25.212Z,57.46
2018-08-13T09:15:25.223Z,57.98
2018-08-13T09:16:25.189Z,58.99
2018-08-13T09:17:25.220Z,58.79
2018-08-13T09:18:25.171Z,58.69
2018-08-13T09:19:25.157Z,59.42
2018-08-13T09:20:25.146Z,59.62
2018-08-13T09:21:25.134Z,59.82
2018-08-13T09:22:25.150Z,61.93
2018-08-13T09:23:25.113Z,61.13
2018-08-13T09:24:25.115Z,63.43
2018-08-13T09:25:25.102Z,62.63
2018-08-13T09:26:25.083Z,63.53
2018-08-13T09:27:25.069Z,64.37
2018-08-13T09:28:25.057Z,65.88
2018-08-13T09:29:25.061Z,65.07
2018-08-13T09:30:25.036Z,65.57
2018-08-13T09:31:25.040Z,65.97
2018-08-13T09:32:25.015Z,66.98
2018-08-13T09:33:25.024Z,68.49
2018-08-13T09:34:24.990Z,69.92
2018-08-13T09:35:25.004Z,70.79
2018-08-13T09:36:24.970Z,71.53
2018-08-13T09:37:24.959Z,70.79
2018-08-13T09:38:24.948Z,72.80
2018-08-13T09:39:24.957Z,71.43
2018-08-13T09:40:24.924Z,70.79
2018-08-13T09:41:24.923Z,68.88
2018-08-13T09:42:24.977Z,68.59
2018-08-13T09:43:24.896Z,68.59
2018-08-13T09:44:24.879Z,71.00
2018-08-13T09:45:24.868Z,71.50
2018-08-13T09:46:24.882Z,73.00
2018-08-13T09:47:24.848Z,70.09
2018-08-13T09:48:24.834Z,68.29
2018-08-13T09:49:24.824Z,68.88
2018-08-13T09:50:24.839Z,71.77
2018-08-13T09:51:24.823Z,71.40
2018-08-13T09:52:24.792Z,71.56
2018-08-13T09:53:24.799Z,72.37
2018-08-13T09:54:24.770Z,70.46
2018-08-13T09:55:24.759Z,69.35
2018-08-13T09:56:24.747Z,69.56
2018-08-13T09:57:24.757Z,70.43
2018-08-13T09:58:24.724Z,69.46
2018-08-13T09:59:24.715Z,69.22
2018-08-13T10:00:24.754Z,69.82
2018-08-13T10:01:24.714Z,68.59
2018-08-13T10:02:24.702Z,68.49
2018-08-13T10:03:24.671Z,68.29
2018-08-13T10:04:24.659Z,68.19
2018-08-13T10:05:24.649Z,69.49
2018-08-13T10:06:24.638Z,69.89
2018-08-13T10:07:24.648Z,70.29
2018-08-13T10:08:24.616Z,70.59
2018-08-13T10:09:24.661Z,67.88
2018-08-13T10:10:24.597Z,68.92
2018-08-13T10:11:24.611Z,68.92
2018-08-13T10:12:24.594Z,69.73
2018-08-13T10:13:24.562Z,68.02
2018-08-13T10:14:24.614Z,69.35
2018-08-13T10:15:24.543Z,70.56
2018-08-13T10:16:24.551Z,71.16
2018-08-13T10:17:24.543Z,71.16
2018-08-13T10:18:24.507Z,71.56
2018-08-13T10:19:24.498Z,71.26
2018-08-13T10:20:24.508Z,72.17
2018-08-13T10:21:24.475Z,73.07
2018-08-13T10:22:24.469Z,72.47
2018-08-13T10:23:24.455Z,71.56
2018-08-13T10:24:24.442Z,72.00
2018-08-13T10:25:24.451Z,71.83
2018-08-13T10:26:24.422Z,72.44
2018-08-13T10:27:24.407Z,70.83
2018-08-13T10:28:24.398Z,71.94
2018-08-13T10:29:24.407Z,71.83
2018-08-13T10:30:24.379Z,72.13
2018-08-13T10:31:24.387Z,71.36
2018-08-13T10:32:24.355Z,72.17
2018-08-13T10:33:24.342Z,72.77
2018-08-13T10:34:24.332Z,73.47
2018-08-13T10:35:24.319Z,72.74
2018-08-13T10:36:24.330Z,72.84
2018-08-13T10:37:24.363Z,73.54
2018-08-13T10:38:24.307Z,72.13
2018-08-13T10:39:24.274Z,72.84
2018-08-13T10:40:24.267Z,71.23
2018-08-13T10:41:24.277Z,71.63
2018-08-13T10:42:24.290Z,71.63
2018-08-13T10:43:24.251Z,73.38
2018-08-13T10:44:24.220Z,73.54
2018-08-13T10:45:24.208Z,73.14
2018-08-13T10:46:24.198Z,74.68
2018-08-13T10:47:24.209Z,73.38
2018-08-13T10:48:24.196Z,73.68
2018-08-13T10:49:24.198Z,73.78
2018-08-13T10:50:24.156Z,74.48
2018-08-13T10:51:24.163Z,77.26
2018-08-13T10:52:24.130Z,75.15
2018-08-13T10:53:24.122Z,74.95
2018-08-13T10:54:24.109Z,75.25
2018-08-13T10:55:24.100Z,75.55
2018-08-13T10:56:24.109Z,75.15
2018-08-13T10:57:24.097Z,74.15
2018-08-13T10:58:24.065Z,74.65
2018-08-13T10:59:24.054Z,74.55
2018-08-13T11:00:24.042Z,75.35
2018-08-13T11:01:24.032Z,75.85
2018-08-13T11:02:24.048Z,75.35
2018-08-13T11:03:24.032Z,75.21
2018-08-13T11:04:24.000Z,75.42
2018-08-13T11:05:23.987Z,74.51
2018-08-13T11:06:24.015Z,74.31
2018-08-13T11:07:23.964Z,75.31
2018-08-13T11:08:23.953Z,74.91
2018-08-13T11:09:23.943Z,75.08
2018-08-13T11:10:24.079Z,74.37
2018-08-13T11:11:23.941Z,74.48
2018-08-13T11:12:23.910Z,74.68
2018-08-13T11:13:23.977Z,73.13
2018-08-13T11:14:23.909Z,72.83
2018-08-13T11:15:23.877Z,72.17
2018-08-13T11:16:23.866Z,71.77
2018-08-13T11:17:23.854Z,72.67
2018-08-13T11:18:23.871Z,72.67
2018-08-13T11:19:23.831Z,72.87
2018-08-13T11:20:23.822Z,73.27
2018-08-13T11:21:23.831Z,75.68
2018-08-13T11:22:23.803Z,72.50
2018-08-13T11:23:23.787Z,73.71
2018-08-13T11:24:23.807Z,73.41
2018-08-13T11:25:23.829Z,72.40
2018-08-13T11:26:23.755Z,71.90
2018-08-13T11:27:23.743Z,73.30
2018-08-13T11:28:23.731Z,72.80
2018-08-13T11:29:23.740Z,72.71
2018-08-13T11:30:23.708Z,73.91
2018-08-13T11:31:23.699Z,73.84
2018-08-13T11:32:23.686Z,73.24
2018-08-13T11:33:23.698Z,74.51
2018-08-13T11:34:23.666Z,75.05
2018-08-13T11:35:23.675Z,74.91
2018-08-13T11:36:23.680Z,74.31
2018-08-13T11:37:23.644Z,74.74
2018-08-13T11:38:23.620Z,74.85
2018-08-13T11:39:23.611Z,74.31
2018-08-13T11:40:23.598Z,74.61
2018-08-13T11:41:23.625Z,74.51
2018-08-13T11:42:23.575Z,74.71
2018-08-13T11:43:23.563Z,74.71
2018-08-13T11:44:23.556Z,74.61
2018-08-13T11:45:23.542Z,74.57
2018-08-13T11:46:23.701Z,73.67
2018-08-13T11:47:23.520Z,75.27
2018-08-13T11:48:23.508Z,76.78
2018-08-13T11:49:23.497Z,75.68
2018-08-13T11:50:23.486Z,74.68
2018-08-13T11:51:23.496Z,74.77
2018-08-13T11:52:23.530Z,74.48
2018-08-13T11:53:23.452Z,74.48
2018-08-13T11:54:23.441Z,74.48
2018-08-13T11:55:23.430Z,75.27
2018-08-13T11:56:23.511Z,74.98
2018-08-13T11:57:23.407Z,75.27
2018-08-13T11:58:23.470Z,75.64
2018-08-13T11:59:23.385Z,75.54
2018-08-13T12:00:23.375Z,74.34
2018-08-13T12:01:23.364Z,74.24
2018-08-13T12:02:23.352Z,74.64
2018-08-13T12:03:23.372Z,74.44
2018-08-13T12:04:23.330Z,74.14
2018-08-13T12:05:23.320Z,74.71
2018-08-13T12:06:23.311Z,73.10
2018-08-13T12:07:23.298Z,72.56
2018-08-13T12:08:23.319Z,71.66
2018-08-13T12:09:23.320Z,72.66
2018-08-13T12:10:23.289Z,71.77
2018-08-13T12:11:23.289Z,72.27
2018-08-13T12:12:23.245Z,71.56
2018-08-13T12:13:23.235Z,71.96
2018-08-13T12:14:23.224Z,71.77
2018-08-13T12:15:23.213Z,71.03
2018-08-13T12:16:23.233Z,71.56
2018-08-13T12:17:23.192Z,71.36
2018-08-13T12:18:23.181Z,71.46
2018-08-13T12:19:23.234Z,71.66
2018-08-13T12:20:23.160Z,71.96
2018-08-13T12:21:23.172Z,71.56
2018-08-13T12:22:23.138Z,71.53
2018-08-13T12:23:23.129Z,71.36
2018-08-13T12:24:23.116Z,71.12
2018-08-13T12:25:23.105Z,71.23
2018-08-13T12:26:23.165Z,70.96
2018-08-13T12:27:23.084Z,71.23
2018-08-13T12:28:23.073Z,70.62
2018-08-13T12:29:23.065Z,71.23
2018-08-13T12:30:23.052Z,71.03
2018-08-13T12:31:23.072Z,70.69
2018-08-13T12:32:23.030Z,70.73
2018-08-13T12:33:23.023Z,71.23
2018-08-13T12:34:23.009Z,71.03
2018-08-13T12:35:23.004Z,71.66
2018-08-13T12:36:23.010Z,71.53
2018-08-13T12:37:22.982Z,71.73
2018-08-13T12:38:22.989Z,71.12
2018-08-13T12:39:22.956Z,70.73
2018-08-13T12:40:22.950Z,71.03
2018-08-13T12:41:22.935Z,70.93
2018-08-13T12:42:22.924Z,71.03
2018-08-13T12:43:23.031Z,71.03
2018-08-13T12:44:22.906Z,71.03
2018-08-13T12:45:22.891Z,71.00
2018-08-13T12:46:22.881Z,71.39
2018-08-13T12:47:22.873Z,71.00
2018-08-13T12:48:22.941Z,71.19
2018-08-13T12:49:22.849Z,71.09
2018-08-13T12:50:22.838Z,69.99
2018-08-13T12:51:22.829Z,70.39
2018-08-13T12:52:22.815Z,69.56